Time;durP1;ratioP1;P1;durP2;ratioP2;P2;SDS_P1;SDS_P2;PMS_P1;PMS_P2;Temp;Humidity;BMP_temperature;BMP_pressure;BME280_temperature;BME280_humidity;BME280_pressure;Samples;Min_cycle;Max_cycle;Signal;HPM_P1;HPM_P2
2022/11/23 00:02:22;;;;;;;;;;;6.80;99.90;;;;;;5094047;28;19931;-63
2022/11/23 00:04:47;;;;;;;;;;;6.70;99.90;;;;;;5093712;28;19950;-62
2022/11/23 00:07:13;;;;;;;;;;;6.70;99.90;;;;;;5093020;28;19931;-64
2022/11/23 00:09:38;;;;;;;;;;;6.80;99.90;;;;;;5094372;28;20242;-63
2022/11/23 00:12:04;;;;;;;;;;;6.70;99.90;;;;;;5126858;27;20021;-69
2022/11/23 00:14:30;;;;;;;;;;;6.70;99.90;;;;;;5094002;28;19924;-65
2022/11/23 00:16:55;;;;;;;;;;;6.70;99.90;;;;;;5092642;28;19924;-66
2022/11/23 00:19:21;;;;;;;;;;;6.70;99.90;;;;;;5094021;28;20373;-64
2022/11/23 00:21:46;;;;;;;;;;;6.80;99.90;;;;;;5126466;27;19974;-64
2022/11/23 00:24:12;;;;;;;;;;;6.70;99.90;;;;;;5093807;28;19931;-62
2022/11/23 00:26:38;;;;;;;;;;;6.70;99.90;;;;;;5093589;28;19924;-62
2022/11/23 00:29:03;;;;;;;;;;;6.80;99.90;;;;;;5091956;28;19920;-64
2022/11/23 00:31:29;;;;;;;;;;;6.80;99.90;;;;;;5093607;28;19924;-64
2022/11/23 00:33:55;;;;;;;;;;;6.80;99.90;;;;;;5092960;28;19931;-65
2022/11/23 00:36:21;;;;;;;;;;;6.80;99.90;;;;;;5125916;27;19928;-63
2022/11/23 00:38:48;;;;;;;;;;;6.80;99.90;;;;;;5091663;28;19928;-66
2022/11/23 00:41:14;;;;;;;;;;;6.80;99.90;;;;;;5091608;28;20394;-62
2022/11/23 00:43:40;;;;;;;;;;;6.90;99.90;;;;;;5092612;28;19924;-64
2022/11/23 00:46:08;;;;;;;;;;;6.80;99.90;;;;;;5092389;28;19924;-63
2022/11/23 00:48:34;;;;;;;;;;;6.90;99.90;;;;;;5092244;28;20373;-63
2022/11/23 00:51:01;;;;;;;;;;;6.90;99.90;;;;;;5092425;28;19930;-63
2022/11/23 00:53:26;;;;;;;;;;;6.80;99.90;;;;;;5092785;28;19927;-64
2022/11/23 00:55:52;;;;;;;;;;;6.80;99.90;;;;;;5092647;28;19924;-63
2022/11/23 00:58:18;;;;;;;;;;;6.90;99.90;;;;;;5092555;28;19924;-63
2022/11/23 01:00:44;;;;;;;;;;;6.80;99.90;;;;;;5091392;28;20019;-61
2022/11/23 01:03:09;;;;;;;;;;;6.90;99.90;;;;;;5092245;28;19969;-61
2022/11/23 01:05:36;;;;;;;;;;;6.90;99.90;;;;;;5091846;28;20262;-62
2022/11/23 01:08:01;;;;;;;;;;;6.90;99.90;;;;;;5091755;28;19936;-65
2022/11/23 01:10:28;;;;;;;;;;;6.90;99.90;;;;;;5092707;28;19939;-64
2022/11/23 01:12:54;;;;;;;;;;;6.90;99.90;;;;;;5091364;28;19939;-63
2022/11/23 01:15:19;;;;;;;;;;;7.00;99.90;;;;;;5092292;28;20327;-65
2022/11/23 01:17:45;;;;;;;;;;;7.00;99.90;;;;;;5092270;28;19924;-63
2022/11/23 01:20:10;;;;;;;;;;;6.90;99.90;;;;;;5090542;28;19977;-62
2022/11/23 01:22:36;;;;;;;;;;;7.00;99.90;;;;;;5091934;28;20077;-62
2022/11/23 01:25:02;;;;;;;;;;;7.10;99.90;;;;;;5090369;28;19924;-64
2022/11/23 01:27:27;;;;;;;;;;;7.10;99.90;;;;;;5091898;28;20022;-63
2022/11/23 01:29:53;;;;;;;;;;;7.10;99.90;;;;;;5090551;28;20032;-74
2022/11/23 01:32:18;;;;;;;;;;;7.10;99.90;;;;;;5124276;27;19931;-64
2022/11/23 01:34:44;;;;;;;;;;;7.10;99.90;;;;;;5091960;28;19935;-64
2022/11/23 01:37:09;;;;;;;;;;;7.10;99.90;;;;;;5090733;28;20290;-64
2022/11/23 01:39:35;;;;;;;;;;;7.10;99.90;;;;;;5091806;28;20102;-63
2022/11/23 01:42:05;;;;;;;;;;;7.10;99.90;;;;;;5091580;28;19989;-63
2022/11/23 01:44:31;;;;;;;;;;;7.10;99.90;;;;;;5092093;28;19947;-65
2022/11/23 01:46:58;;;;;;;;;;;7.10;99.90;;;;;;5091505;28;19924;-63
2022/11/23 01:49:24;;;;;;;;;;;7.10;99.90;;;;;;5091122;28;20011;-63
2022/11/23 01:51:53;;;;;;;;;;;7.10;99.90;;;;;;5091634;28;19931;-63
2022/11/23 01:54:33;;;;;;;;;;;7.20;99.90;;;;;;5091374;28;19994;-64
2022/11/23 01:57:06;;;;;;;;;;;7.20;99.90;;;;;;5091463;28;19936;-62
2022/11/23 01:59:32;;;;;;;;;;;7.20;99.90;;;;;;5091640;28;19928;-65
2022/11/23 02:01:59;;;;;;;;;;;7.30;99.90;;;;;;5090477;28;20388;-71
2022/11/23 02:04:28;;;;;;;;;;;7.30;99.90;;;;;;5091273;28;19971;-64
2022/11/23 02:06:54;;;;;;;;;;;7.40;99.90;;;;;;5091323;28;20299;-66
2022/11/23 02:09:20;;;;;;;;;;;7.40;99.90;;;;;;5091278;28;20015;-64
2022/11/23 02:11:46;;;;;;;;;;;7.40;99.90;;;;;;5091059;28;19924;-61
2022/11/23 02:14:11;;;;;;;;;;;7.90;99.90;;;;;;5089630;28;20381;-62
2022/11/23 02:16:37;;;;;;;;;;;7.40;99.90;;;;;;5090928;28;20310;-62
2022/11/23 02:19:05;;;;;;;;;;;7.40;99.90;;;;;;5091101;28;19924;-62
2022/11/23 02:21:31;;;;;;;;;;;7.40;99.90;;;;;;5090935;28;19928;-62
2022/11/23 02:23:56;;;;;;;;;;;7.50;99.90;;;;;;5091171;28;20020;-64
2022/11/23 02:26:25;;;;;;;;;;;7.40;99.90;;;;;;5123307;28;19967;-62
2022/11/23 02:29:09;;;;;;;;;;;7.40;99.90;;;;;;5091032;28;19928;-62
2022/11/23 02:31:35;;;;;;;;;;;7.40;99.90;;;;;;5091448;28;20207;-66
2022/11/23 02:34:00;;;;;;;;;;;7.50;99.90;;;;;;5091132;28;19931;-64
2022/11/23 02:36:26;;;;;;;;;;;7.50;99.90;;;;;;5106433;28;20007;-65
2022/11/23 02:38:52;;;;;;;;;;;7.50;99.90;;;;;;5123897;28;20046;-63
2022/11/23 02:41:17;;;;;;;;;;;7.50;99.90;;;;;;5123199;28;19969;-64
2022/11/23 02:43:43;;;;;;;;;;;7.60;99.90;;;;;;5091446;28;19928;-63
2022/11/23 02:46:09;;;;;;;;;;;7.50;99.90;;;;;;5090479;28;19924;-68
2022/11/23 02:48:34;;;;;;;;;;;7.50;99.90;;;;;;5091227;28;19924;-63
2022/11/23 02:51:00;;;;;;;;;;;7.50;99.90;;;;;;5090618;28;19931;-63
2022/11/23 02:53:26;;;;;;;;;;;7.50;99.90;;;;;;5090740;28;20277;-62
2022/11/23 02:55:51;;;;;;;;;;;7.60;99.90;;;;;;5106585;28;20231;-65
2022/11/23 02:58:17;;;;;;;;;;;7.60;99.90;;;;;;5089584;28;19932;-65
2022/11/23 03:00:42;;;;;;;;;;;7.50;99.90;;;;;;5124365;27;19924;-63
2022/11/23 03:03:08;;;;;;;;;;;7.50;99.90;;;;;;5110197;28;19924;-70
2022/11/23 03:05:34;;;;;;;;;;;7.60;99.90;;;;;;5095042;28;19924;-63
2022/11/23 03:07:59;;;;;;;;;;;7.50;99.90;;;;;;5094439;28;20039;-62
2022/11/23 03:10:25;;;;;;;;;;;7.60;99.90;;;;;;5094608;28;19924;-62
2022/11/23 03:12:52;;;;;;;;;;;7.60;99.90;;;;;;5127523;27;20337;-65
2022/11/23 03:15:18;;;;;;;;;;;7.60;99.90;;;;;;5094159;28;19924;-63
2022/11/23 03:17:43;;;;;;;;;;;7.60;99.90;;;;;;5094539;28;19930;-62
2022/11/23 03:20:09;;;;;;;;;;;7.60;99.90;;;;;;5093996;28;19930;-62
2022/11/23 03:22:35;;;;;;;;;;;7.60;99.90;;;;;;5094689;28;20324;-63
2022/11/23 03:25:01;;;;;;;;;;;7.60;99.90;;;;;;5094231;28;19928;-62
2022/11/23 03:27:33;;;;;;;;;;;7.50;99.90;;;;;;5094214;28;19978;-66
2022/11/23 03:29:59;;;;;;;;;;;7.50;99.90;;;;;;5092763;28;19928;-65
2022/11/23 03:32:24;;;;;;;;;;;7.60;99.90;;;;;;5093870;28;19924;-62
2022/11/23 03:34:50;;;;;;;;;;;7.60;99.90;;;;;;5094337;28;19928;-64
2022/11/23 03:37:16;;;;;;;;;;;7.60;99.90;;;;;;5093471;28;19939;-63
2022/11/23 03:39:41;;;;;;;;;;;7.60;99.90;;;;;;5093779;28;19939;-63
2022/11/23 03:42:07;;;;;;;;;;;7.60;99.90;;;;;;5093764;28;20381;-62
2022/11/23 03:44:32;;;;;;;;;;;7.60;99.90;;;;;;5093792;28;20130;-61
2022/11/23 03:46:58;;;;;;;;;;;7.60;99.90;;;;;;5092936;28;20385;-64
2022/11/23 03:49:24;;;;;;;;;;;7.60;99.90;;;;;;5094130;28;20384;-64
2022/11/23 03:51:49;;;;;;;;;;;7.60;99.90;;;;;;5093891;28;19935;-64
2022/11/23 03:54:15;;;;;;;;;;;7.70;99.90;;;;;;5075589;28;20388;-66
2022/11/23 03:56:40;;;;;;;;;;;7.60;99.90;;;;;;5094123;28;20292;-62
2022/11/23 03:59:06;;;;;;;;;;;7.60;99.90;;;;;;5093468;28;20023;-61
2022/11/23 04:01:31;;;;;;;;;;;7.60;99.90;;;;;;5093869;28;19924;-64
2022/11/23 04:03:57;;;;;;;;;;;7.60;99.90;;;;;;5093583;28;20390;-61
2022/11/23 04:06:23;;;;;;;;;;;7.60;99.90;;;;;;5093499;28;20011;-61
2022/11/23 04:08:48;;;;;;;;;;;7.60;99.90;;;;;;5094040;28;19931;-63
2022/11/23 04:11:14;;;;;;;;;;;7.60;99.90;;;;;;5092023;28;19969;-62
2022/11/23 04:13:39;;;;;;;;;;;7.60;99.90;;;;;;5093108;28;19924;-63
2022/11/23 04:16:06;;;;;;;;;;;7.60;99.90;;;;;;5093346;28;19946;-64
2022/11/23 04:18:31;;;;;;;;;;;7.60;99.90;;;;;;5091559;28;19940;-62
2022/11/23 04:20:57;;;;;;;;;;;7.60;99.90;;;;;;5093021;28;19924;-64
2022/11/23 04:23:23;;;;;;;;;;;7.60;99.90;;;;;;5092543;28;19947;-62
2022/11/23 04:25:48;;;;;;;;;;;7.60;99.90;;;;;;5092930;28;19969;-61
2022/11/23 04:28:14;;;;;;;;;;;7.60;99.90;;;;;;5091515;28;19931;-62
2022/11/23 04:30:39;;;;;;;;;;;7.60;99.90;;;;;;5093048;28;19924;-62
2022/11/23 04:33:05;;;;;;;;;;;7.70;99.90;;;;;;5093211;28;19924;-62
2022/11/23 04:35:31;;;;;;;;;;;7.70;99.90;;;;;;5125393;27;19928;-62
2022/11/23 04:37:56;;;;;;;;;;;7.60;99.90;;;;;;5125550;27;19978;-63
2022/11/23 04:40:22;;;;;;;;;;;7.70;99.90;;;;;;5092401;28;19924;-63
2022/11/23 04:42:47;;;;;;;;;;;7.70;99.90;;;;;;5108697;28;19964;-63
2022/11/23 04:45:13;;;;;;;;;;;7.60;99.90;;;;;;5092606;28;19940;-63
2022/11/23 04:47:38;;;;;;;;;;;7.70;99.90;;;;;;5125548;27;19931;-64
2022/11/23 04:50:04;;;;;;;;;;;7.70;99.90;;;;;;5092437;28;19924;-62
2022/11/23 04:52:30;;;;;;;;;;;7.70;99.90;;;;;;5090835;28;19925;-63
2022/11/23 04:54:55;;;;;;;;;;;7.70;99.90;;;;;;5092341;28;20460;-64
2022/11/23 04:57:21;;;;;;;;;;;7.70;99.90;;;;;;5125308;27;19928;-63
2022/11/23 04:59:46;;;;;;;;;;;7.70;99.90;;;;;;5073662;28;19924;-62
2022/11/23 05:02:12;;;;;;;;;;;7.70;99.90;;;;;;5092388;28;20353;-62
2022/11/23 05:04:37;;;;;;;;;;;7.60;99.90;;;;;;5091696;28;19928;-62
2022/11/23 05:07:03;;;;;;;;;;;7.70;99.90;;;;;;5091977;28;19928;-66
2022/11/23 05:09:28;;;;;;;;;;;7.70;99.90;;;;;;5092234;28;19932;-62
2022/11/23 05:11:54;;;;;;;;;;;7.70;99.90;;;;;;5092054;28;19924;-65
2022/11/23 05:14:19;;;;;;;;;;;7.80;99.90;;;;;;5092290;28;20093;-65
2022/11/23 05:16:45;;;;;;;;;;;7.70;99.90;;;;;;5107089;28;20113;-66
2022/11/23 05:19:11;;;;;;;;;;;7.70;99.90;;;;;;5073942;28;19940;-68
2022/11/23 05:21:36;;;;;;;;;;;7.70;99.90;;;;;;5091177;28;19942;-63
2022/11/23 05:24:02;;;;;;;;;;;7.60;99.90;;;;;;5090819;28;19950;-66
2022/11/23 05:26:27;;;;;;;;;;;7.70;99.90;;;;;;5091463;28;19924;-72
2022/11/23 05:28:53;;;;;;;;;;;7.70;99.90;;;;;;5091488;28;19987;-64
2022/11/23 05:31:18;;;;;;;;;;;7.70;99.90;;;;;;5124763;27;20340;-63
2022/11/23 05:33:44;;;;;;;;;;;7.80;99.90;;;;;;5091564;28;20289;-62
2022/11/23 05:36:12;;;;;;;;;;;7.70;99.90;;;;;;5073451;28;20314;-62
2022/11/23 05:38:38;;;;;;;;;;;7.80;99.90;;;;;;5091038;28;19982;-62
2022/11/23 05:41:05;;;;;;;;;;;7.80;99.90;;;;;;5091698;28;19924;-62
2022/11/23 05:43:30;;;;;;;;;;;7.80;99.90;;;;;;5091704;28;19928;-71
2022/11/23 05:45:59;;;;;;;;;;;7.80;99.90;;;;;;5091382;28;19931;-63
2022/11/23 05:48:25;;;;;;;;;;;7.80;99.90;;;;;;5090752;28;19924;-61
2022/11/23 05:50:50;;;;;;;;;;;7.80;99.90;;;;;;5091482;28;20465;-65
2022/11/23 05:53:16;;;;;;;;;;;7.80;99.90;;;;;;5091710;28;20480;-63
2022/11/23 05:55:42;;;;;;;;;;;7.80;99.90;;;;;;5124597;27;20284;-61
2022/11/23 05:58:07;;;;;;;;;;;7.80;99.90;;;;;;5090273;28;19932;-64
2022/11/23 06:00:33;;;;;;;;;;;7.80;99.90;;;;;;5123929;27;20019;-67
2022/11/23 06:02:59;;;;;;;;;;;7.80;99.90;;;;;;5091335;28;19924;-63
2022/11/23 06:05:25;;;;;;;;;;;7.80;99.90;;;;;;5091120;28;20095;-62
2022/11/23 06:07:54;;;;;;;;;;;7.90;99.90;;;;;;5091503;28;20073;-62
2022/11/23 06:10:19;;;;;;;;;;;7.90;99.90;;;;;;5091143;28;19944;-63
2022/11/23 06:12:45;;;;;;;;;;;7.90;99.90;;;;;;5072783;28;20353;-64
2022/11/23 06:15:11;;;;;;;;;;;7.90;99.90;;;;;;5089854;28;20044;-62
2022/11/23 06:17:36;;;;;;;;;;;7.90;99.90;;;;;;5090166;28;20395;-62
2022/11/23 06:20:04;;;;;;;;;;;7.90;99.90;;;;;;5123788;27;19978;-62
2022/11/23 06:22:29;;;;;;;;;;;7.90;99.90;;;;;;5091472;28;19924;-64
2022/11/23 06:24:55;;;;;;;;;;;7.90;99.90;;;;;;5091460;28;19931;-63
2022/11/23 06:27:20;;;;;;;;;;;7.90;99.90;;;;;;5090888;28;19928;-63
2022/11/23 06:29:46;;;;;;;;;;;7.90;99.90;;;;;;5091005;28;19970;-62
2022/11/23 06:32:11;;;;;;;;;;;8.20;99.90;;;;;;5107413;28;19939;-65
2022/11/23 06:34:37;;;;;;;;;;;7.90;99.90;;;;;;5089398;28;19924;-73
2022/11/23 06:37:02;;;;;;;;;;;7.90;99.90;;;;;;5126748;27;19924;-63
2022/11/23 06:39:28;;;;;;;;;;;8.00;99.90;;;;;;5094489;28;20075;-63
2022/11/23 06:41:54;;;;;;;;;;;8.00;99.90;;;;;;5094919;28;19924;-62
2022/11/23 06:44:19;;;;;;;;;;;7.90;99.90;;;;;;5093796;28;19931;-63
2022/11/23 06:46:45;;;;;;;;;;;8.00;99.90;;;;;;5093629;28;19924;-62
2022/11/23 06:49:10;;;;;;;;;;;8.00;99.90;;;;;;5094561;28;19928;-62
2022/11/23 06:51:36;;;;;;;;;;;7.90;99.90;;;;;;5095216;28;20027;-63
2022/11/23 06:54:01;;;;;;;;;;;7.90;99.90;;;;;;5094793;28;19976;-63
2022/11/23 06:56:27;;;;;;;;;;;7.90;99.90;;;;;;5093920;28;20431;-63
2022/11/23 06:58:53;;;;;;;;;;;7.90;99.90;;;;;;5076281;28;20038;-62
2022/11/23 07:01:18;;;;;;;;;;;7.90;99.90;;;;;;5110617;28;19924;-62
2022/11/23 07:03:44;;;;;;;;;;;7.90;99.90;;;;;;5094155;28;19971;-62
2022/11/23 07:06:09;;;;;;;;;;;7.90;99.90;;;;;;5093694;28;19924;-62
2022/11/23 07:08:38;;;;;;;;;;;7.80;99.90;;;;;;5094670;28;19924;-64
2022/11/23 07:11:05;;;;;;;;;;;7.90;99.90;;;;;;5093482;28;19924;-64
2022/11/23 07:13:31;;;;;;;;;;;7.90;99.90;;;;;;5094109;28;19986;-62
2022/11/23 07:15:58;;;;;;;;;;;7.90;99.90;;;;;;5094103;28;19924;-64
2022/11/23 07:18:24;;;;;;;;;;;7.80;99.90;;;;;;5093435;28;20347;-62
2022/11/23 07:20:49;;;;;;;;;;;7.90;99.90;;;;;;5093674;28;20361;-63
2022/11/23 07:23:15;;;;;;;;;;;7.90;99.90;;;;;;5093961;28;19924;-64
2022/11/23 07:25:40;;;;;;;;;;;7.90;99.90;;;;;;5093436;28;19928;-63
2022/11/23 07:28:06;;;;;;;;;;;7.90;99.90;;;;;;5093617;28;19924;-64
2022/11/23 07:30:32;;;;;;;;;;;7.90;99.90;;;;;;5094184;28;19924;-64
2022/11/23 07:33:02;;;;;;;;;;;7.80;99.90;;;;;;5109296;28;20397;-62
2022/11/23 07:35:28;;;;;;;;;;;7.80;99.90;;;;;;5094086;28;20019;-63
2022/11/23 07:37:54;;;;;;;;;;;7.90;99.90;;;;;;5093657;28;20027;-64
2022/11/23 07:40:19;;;;;;;;;;;7.90;99.90;;;;;;5093678;28;19975;-65
2022/11/23 07:42:45;;;;;;;;;;;7.90;99.90;;;;;;5093761;28;19974;-65
2022/11/23 07:45:11;;;;;;;;;;;7.80;99.90;;;;;;5092695;28;20015;-62
2022/11/23 07:47:37;;;;;;;;;;;7.80;99.90;;;;;;5093219;28;19924;-63
2022/11/23 07:50:03;;;;;;;;;;;7.90;99.90;;;;;;5093978;28;20023;-63
2022/11/23 07:52:29;;;;;;;;;;;7.90;99.90;;;;;;5092485;28;19932;-64
2022/11/23 07:54:55;;;;;;;;;;;7.90;99.90;;;;;;5093832;28;19924;-62
2022/11/23 07:57:20;;;;;;;;;;;7.90;99.90;;;;;;5092676;28;20296;-63
2022/11/23 07:59:46;;;;;;;;;;;7.80;99.90;;;;;;5093163;28;19977;-64
2022/11/23 08:02:12;;;;;;;;;;;7.80;99.90;;;;;;5126655;27;19938;-63
2022/11/23 08:04:38;;;;;;;;;;;7.90;99.90;;;;;;5126887;27;19925;-64
2022/11/23 08:07:03;;;;;;;;;;;7.90;99.90;;;;;;5093541;28;19977;-62
2022/11/23 08:09:29;;;;;;;;;;;7.90;99.90;;;;;;5093635;28;19924;-64
2022/11/23 08:11:55;;;;;;;;;;;7.80;99.90;;;;;;5093454;28;19931;-63
2022/11/23 08:14:20;;;;;;;;;;;7.80;99.90;;;;;;5092170;28;20015;-62
2022/11/23 08:16:50;;;;;;;;;;;7.90;99.90;;;;;;5093586;28;20288;-64
2022/11/23 08:19:16;;;;;;;;;;;7.90;99.90;;;;;;5092831;28;19924;-62
2022/11/23 08:21:41;;;;;;;;;;;7.90;99.90;;;;;;5093400;28;20185;-63
2022/11/23 08:24:07;;;;;;;;;;;7.90;99.90;;;;;;5093128;28;19975;-62
2022/11/23 08:26:33;;;;;;;;;;;7.90;99.90;;;;;;5093371;28;19931;-64
2022/11/23 08:28:58;;;;;;;;;;;7.90;99.90;;;;;;5125999;27;20061;-65
2022/11/23 08:31:24;;;;;;;;;;;7.90;99.90;;;;;;5093352;28;19928;-62
2022/11/23 08:33:49;;;;;;;;;;;7.90;99.90;;;;;;5093347;28;19997;-61
2022/11/23 08:36:15;;;;;;;;;;;7.90;99.90;;;;;;5091563;28;19935;-62
2022/11/23 08:38:41;;;;;;;;;;;7.90;99.90;;;;;;5093047;28;19928;-62
2022/11/23 08:41:06;;;;;;;;;;;7.90;99.90;;;;;;5092240;28;19972;-66
2022/11/23 08:43:33;;;;;;;;;;;7.90;99.90;;;;;;5093380;28;19924;-64
2022/11/23 08:45:59;;;;;;;;;;;7.90;99.90;;;;;;5092192;28;19931;-63
2022/11/23 08:48:24;;;;;;;;;;;8.00;99.90;;;;;;5092640;28;20010;-66
2022/11/23 08:50:50;;;;;;;;;;;8.00;99.90;;;;;;5092596;28;19986;-63
2022/11/23 08:53:16;;;;;;;;;;;8.00;99.90;;;;;;5092608;28;19950;-64
2022/11/23 08:55:42;;;;;;;;;;;7.90;99.90;;;;;;5125972;27;19920;-67
2022/11/23 08:58:08;;;;;;;;;;;8.00;99.90;;;;;;5073946;28;20285;-64
2022/11/23 09:00:34;;;;;;;;;;;8.00;99.90;;;;;;5092491;28;19931;-68
2022/11/23 09:02:59;;;;;;;;;;;8.00;99.90;;;;;;5092428;28;19963;-63
2022/11/23 09:05:25;;;;;;;;;;;8.10;99.90;;;;;;5091374;28;20400;-64
2022/11/23 09:07:51;;;;;;;;;;;8.10;99.90;;;;;;5092304;28;19923;-62
2022/11/23 09:10:16;;;;;;;;;;;8.10;99.90;;;;;;5091951;28;20019;-63
2022/11/23 09:12:42;;;;;;;;;;;8.10;99.90;;;;;;5092116;28;19924;-62
2022/11/23 09:15:08;;;;;;;;;;;8.20;99.90;;;;;;5091926;28;19962;-62
2022/11/23 09:17:34;;;;;;;;;;;8.20;99.90;;;;;;5092070;28;19928;-67
2022/11/23 09:20:00;;;;;;;;;;;8.30;99.90;;;;;;5091801;28;19924;-68
2022/11/23 09:22:26;;;;;;;;;;;8.30;99.90;;;;;;5090724;28;19924;-67
2022/11/23 09:24:52;;;;;;;;;;;8.30;99.90;;;;;;5091995;28;20175;-64
2022/11/23 09:27:17;;;;;;;;;;;8.30;99.90;;;;;;5091493;28;20366;-65
2022/11/23 09:29:43;;;;;;;;;;;8.40;99.90;;;;;;5072297;28;19924;-65
2022/11/23 09:32:08;;;;;;;;;;;8.40;99.90;;;;;;5091378;28;19940;-66
2022/11/23 09:34:34;;;;;;;;;;;8.30;99.90;;;;;;5125122;27;19931;-68
2022/11/23 09:37:00;;;;;;;;;;;8.40;99.90;;;;;;5091521;28;19924;-66
2022/11/23 09:39:25;;;;;;;;;;;8.40;99.90;;;;;;5091670;28;19924;-68
2022/11/23 09:41:58;;;;;;;;;;;8.50;99.90;;;;;;5091390;28;20039;-67
2022/11/23 09:44:27;;;;;;;;;;;8.50;99.90;;;;;;5091737;28;19920;-69
2022/11/23 09:46:52;;;;;;;;;;;8.60;99.90;;;;;;5092077;28;20296;-65
2022/11/23 09:49:26;;;;;;;;;;;8.60;99.90;;;;;;5123413;27;19924;-64
2022/11/23 09:51:54;;;;;;;;;;;8.60;99.90;;;;;;5092278;28;19924;-64
2022/11/23 09:54:26;;;;;;;;;;;8.70;99.90;;;;;;5091584;28;20381;-64
2022/11/23 09:56:53;;;;;;;;;;;8.70;99.90;;;;;;5091890;28;20351;-65
2022/11/23 09:59:37;;;;;;;;;;;8.70;99.90;;;;;;5087491;28;19950;-64
2022/11/23 10:02:03;;;;;;;;;;;8.70;99.90;;;;;;5089929;28;20365;-65
2022/11/23 10:04:32;;;;;;;;;;;8.80;99.90;;;;;;5090706;28;19946;-61
2022/11/23 10:07:16;;;;;;;;;;;8.70;99.90;;;;;;5089074;28;19931;-65
2022/11/23 10:09:45;;;;;;;;;;;8.80;99.90;;;;;;5090250;28;19924;-64
2022/11/23 10:12:25;;;;;;;;;;;8.80;99.90;;;;;;5091288;28;19932;-65
2022/11/23 10:15:09;;;;;;;;;;;8.80;99.90;;;;;;5091439;28;19932;-65
2022/11/23 10:17:49;;;;;;;;;;;8.80;99.90;;;;;;5089302;28;19931;-64
2022/11/23 10:20:18;;;;;;;;;;;8.80;99.90;;;;;;5091030;28;19924;-65
2022/11/23 10:22:55;;;;;;;;;;;8.80;99.90;;;;;;5090774;28;19920;-66
2022/11/23 10:25:22;;;;;;;;;;;8.80;99.90;;;;;;5090123;28;19928;-69
2022/11/23 10:27:49;;;;;;;;;;;8.80;99.90;;;;;;5090205;28;19939;-66
2022/11/23 10:30:15;;;;;;;;;;;8.80;99.90;;;;;;5091150;28;19982;-66
2022/11/23 10:32:47;;;;;;;;;;;8.80;99.90;;;;;;5089290;28;19940;-65
2022/11/23 10:35:15;;;;;;;;;;;8.80;99.90;;;;;;5086349;28;19971;-72
2022/11/23 10:37:41;;;;;;;;;;;8.90;99.90;;;;;;5086370;28;19924;-68
2022/11/23 10:40:15;;;;;;;;;;;8.80;99.90;;;;;;5085845;28;19924;-68
2022/11/23 10:42:44;;;;;;;;;;;8.80;99.90;;;;;;5084710;28;20197;-70
2022/11/23 10:45:20;;;;;;;;;;;8.80;99.90;;;;;;5082013;28;20015;-70
2022/11/23 10:47:50;;;;;;;;;;;8.80;99.90;;;;;;5086455;28;19928;-71
2022/11/23 10:50:36;;;;;;;;;;;8.90;99.90;;;;;;5087846;28;20061;-73
2022/11/23 10:53:04;;;;;;;;;;;8.80;99.90;;;;;;5088812;28;20007;-71
2022/11/23 10:55:46;;;;;;;;;;;8.90;99.90;;;;;;5116637;28;20419;-68
2022/11/23 10:58:26;;;;;;;;;;;8.80;99.90;;;;;;5088446;28;19969;-74
2022/11/23 11:00:59;;;;;;;;;;;8.80;99.90;;;;;;5087332;28;20006;-66
2022/11/23 11:03:25;;;;;;;;;;;8.80;99.90;;;;;;5088284;28;19924;-67
2022/11/23 11:05:50;;;;;;;;;;;8.80;99.90;;;;;;5082882;28;20007;-67
2022/11/23 11:08:17;;;;;;;;;;;8.80;99.90;;;;;;5088524;28;20304;-73
2022/11/23 11:10:45;;;;;;;;;;;8.80;99.90;;;;;;5090063;28;20323;-67
2022/11/23 11:13:30;;;;;;;;;;;8.80;99.90;;;;;;5088873;28;20317;-67
2022/11/23 11:15:58;;;;;;;;;;;8.80;99.90;;;;;;5123201;28;19928;-66
2022/11/23 11:18:24;;;;;;;;;;;8.90;99.90;;;;;;5088461;28;20007;-67
2022/11/23 11:20:55;;;;;;;;;;;8.80;99.90;;;;;;5086174;28;19924;-68
2022/11/23 11:23:21;;;;;;;;;;;8.90;99.90;;;;;;5091163;28;19928;-75
2022/11/23 11:25:48;;;;;;;;;;;9.00;99.90;;;;;;5092658;28;19924;-67
2022/11/23 11:28:32;;;;;;;;;;;9.00;99.90;;;;;;5094163;28;19973;-67
2022/11/23 11:31:18;;;;;;;;;;;9.10;99.90;;;;;;5093308;28;19974;-67
2022/11/23 11:33:53;;;;;;;;;;;9.00;99.90;;;;;;5128362;27;19924;-66
2022/11/23 11:36:19;;;;;;;;;;;9.10;99.90;;;;;;5092852;28;19925;-75
2022/11/23 11:38:48;;;;;;;;;;;9.20;99.90;;;;;;5093669;28;19931;-68
2022/11/23 11:41:14;;;;;;;;;;;9.20;99.90;;;;;;5093005;28;19931;-69
2022/11/23 11:43:52;;;;;;;;;;;9.20;99.90;;;;;;5092073;28;19924;-69
2022/11/23 11:46:21;;;;;;;;;;;9.20;99.90;;;;;;5127264;27;20001;-75
2022/11/23 11:48:50;;;;;;;;;;;9.30;99.90;;;;;;5094038;28;19931;-69
2022/11/23 11:51:28;;;;;;;;;;;9.20;99.90;;;;;;5127170;27;19959;-68
2022/11/23 11:53:57;;;;;;;;;;;9.30;99.90;;;;;;5093902;28;19981;-70
2022/11/23 11:56:35;;;;;;;;;;;9.30;99.90;;;;;;5092549;28;19924;-70
2022/11/23 11:59:19;;;;;;;;;;;9.30;99.90;;;;;;5093810;28;19928;-69
2022/11/23 12:01:59;;;;;;;;;;;9.30;99.90;;;;;;5092580;28;19924;-69
2022/11/23 12:04:34;;;;;;;;;;;9.30;99.90;;;;;;5092769;28;20010;-67
2022/11/23 12:07:15;;;;;;;;;;;9.40;99.90;;;;;;5092992;28;19924;-68
2022/11/23 12:09:43;;;;;;;;;;;9.40;99.90;;;;;;5093915;28;20618;-68
2022/11/23 12:12:15;;;;;;;;;;;9.40;99.90;;;;;;5094181;28;19979;-70
2022/11/23 12:14:41;;;;;;;;;;;9.40;99.90;;;;;;5109437;28;19990;-69
2022/11/23 12:17:22;;;;;;;;;;;9.50;99.90;;;;;;5093910;28;19924;-68
2022/11/23 12:19:55;;;;;;;;;;;9.50;99.90;;;;;;5075802;28;19924;-68
2022/11/23 12:22:40;;;;;;;;;;;9.50;99.90;;;;;;5092516;28;19935;-66
2022/11/23 12:25:14;;;;;;;;;;;9.50;99.90;;;;;;5093722;28;19947;-68
2022/11/23 12:27:58;;;;;;;;;;;9.60;99.90;;;;;;5092561;28;19975;-70
2022/11/23 12:30:24;;;;;;;;;;;9.60;99.90;;;;;;5093219;28;20104;-74
2022/11/23 12:33:02;;;;;;;;;;;9.60;99.90;;;;;;5092159;28;19931;-69
2022/11/23 12:35:46;;;;;;;;;;;9.70;99.90;;;;;;5091947;28;20396;-68
2022/11/23 12:38:23;;;;;;;;;;;9.60;99.90;;;;;;5093563;28;20296;-67
2022/11/23 12:40:58;;;;;;;;;;;9.70;99.90;;;;;;5091439;28;20007;-68
2022/11/23 12:43:31;;;;;;;;;;;9.70;99.90;;;;;;5093547;28;19984;-67
2022/11/23 12:46:07;;;;;;;;;;;9.70;99.90;;;;;;5092733;28;19996;-67
2022/11/23 12:48:39;;;;;;;;;;;9.70;99.90;;;;;;5092540;28;20350;-66
2022/11/23 12:51:37;;;;;;;;;;;9.80;99.90;;;;;;5092366;28;20019;-66
2022/11/23 12:54:08;;;;;;;;;;;9.80;99.90;;;;;;5069543;28;19947;-67
2022/11/23 12:56:40;;;;;;;;;;;9.80;99.90;;;;;;5092830;28;19931;-66
2022/11/23 12:59:08;;;;;;;;;;;9.90;99.90;;;;;;5093270;28;19975;-67
2022/11/23 13:01:35;;;;;;;;;;;9.80;99.90;;;;;;5091630;28;19930;-72
2022/11/23 13:04:16;;;;;;;;;;;9.90;99.90;;;;;;5093087;28;19932;-69
2022/11/23 13:06:57;;;;;;;;;;;9.90;99.90;;;;;;5092161;28;19989;-67
2022/11/23 13:10:01;;;;;;;;;;;9.80;99.90;;;;;;5090107;28;19920;-70
2022/11/23 13:12:29;;;;;;;;;;;9.90;99.90;;;;;;5048828;28;19925;-66
2022/11/23 13:15:09;;;;;;;;;;;10.00;99.90;;;;;;5032771;28;19959;-67
2022/11/23 13:17:38;;;;;;;;;;;10.00;99.90;;;;;;5073576;28;19928;-68
2022/11/23 13:20:13;;;;;;;;;;;10.00;99.90;;;;;;5091029;28;19938;-70
2022/11/23 13:22:39;;;;;;;;;;;10.10;99.90;;;;;;5091518;28;19924;-67
2022/11/23 13:25:23;;;;;;;;;;;10.00;99.90;;;;;;5092295;28;19931;-67
2022/11/23 13:27:48;;;;;;;;;;;10.00;99.90;;;;;;5091293;28;19928;-67
2022/11/23 13:30:25;;;;;;;;;;;10.00;99.90;;;;;;5089413;28;20591;-66
2022/11/23 13:32:51;;;;;;;;;;;10.00;99.90;;;;;;5092275;28;20498;-66
2022/11/23 13:35:19;;;;;;;;;;;10.00;99.90;;;;;;5091385;28;19924;-66
2022/11/23 13:37:59;;;;;;;;;;;10.00;99.90;;;;;;5091845;28;19932;-66
2022/11/23 13:40:35;;;;;;;;;;;10.00;99.90;;;;;;5092224;28;20001;-68
2022/11/23 13:43:03;;;;;;;;;;;10.00;99.90;;;;;;5092469;28;19932;-67
2022/11/23 13:45:32;;;;;;;;;;;10.00;99.90;;;;;;5092076;28;19966;-66
2022/11/23 13:48:04;;;;;;;;;;;10.00;99.90;;;;;;5092178;28;20333;-67
2022/11/23 13:50:30;;;;;;;;;;;9.90;99.90;;;;;;5091813;28;19979;-66
2022/11/23 13:52:56;;;;;;;;;;;9.90;99.90;;;;;;5090632;28;19959;-67
2022/11/23 13:55:28;;;;;;;;;;;9.90;99.90;;;;;;5092171;28;19967;-67
2022/11/23 13:58:12;;;;;;;;;;;9.80;99.90;;;;;;5091827;28;19978;-68
2022/11/23 14:00:44;;;;;;;;;;;9.80;99.90;;;;;;5090536;28;19924;-67
2022/11/23 14:03:28;;;;;;;;;;;9.80;99.90;;;;;;5091695;28;19924;-71
2022/11/23 14:05:57;;;;;;;;;;;9.70;99.90;;;;;;5091533;28;19936;-67
2022/11/23 14:08:23;;;;;;;;;;;9.60;99.90;;;;;;5091678;28;19931;-67
2022/11/23 14:10:49;;;;;;;;;;;9.70;99.90;;;;;;5090123;28;20272;-66
2022/11/23 14:13:18;;;;;;;;;;;9.60;99.90;;;;;;5090679;28;19931;-67
2022/11/23 14:15:45;;;;;;;;;;;9.60;99.90;;;;;;5091250;28;19932;-67
2022/11/23 14:18:30;;;;;;;;;;;9.60;99.90;;;;;;5124722;27;19928;-68
2022/11/23 14:21:12;;;;;;;;;;;9.50;99.90;;;;;;5107256;28;20010;-66
2022/11/23 14:23:38;;;;;;;;;;;9.50;99.90;;;;;;5091019;28;19924;-67
2022/11/23 14:26:10;;;;;;;;;;;9.50;99.90;;;;;;5090990;28;19931;-69
2022/11/23 14:28:54;;;;;;;;;;;9.50;99.90;;;;;;5090518;28;19982;-67
2022/11/23 14:31:31;;;;;;;;;;;9.40;99.90;;;;;;5091733;28;20390;-67
2022/11/23 14:34:09;;;;;;;;;;;9.40;99.90;;;;;;5091496;28;19928;-67
2022/11/23 14:36:56;;;;;;;;;;;9.30;99.90;;;;;;5090461;28;19924;-67